createdAt,value
2022-09-26T00:01:34.587Z,99833.41
2022-09-26T00:04:07.970Z,99836.06
2022-09-26T00:06:35.557Z,99847.59
2022-09-26T00:09:03.141Z,99837.56
2022-09-26T00:11:33.052Z,99834.00
2022-09-26T00:14:04.714Z,99806.09
2022-09-26T00:16:33.040Z,99788.00
2022-09-26T00:19:04.203Z,99772.28
2022-09-26T00:21:32.316Z,99755.03
2022-09-26T00:24:01.644Z,99756.69
2022-09-26T00:26:31.128Z,99749.00
2022-09-26T00:29:01.164Z,99771.53
2022-09-26T00:31:32.061Z,99768.88
2022-09-26T00:34:00.625Z,99767.22
2022-09-26T00:36:37.369Z,99790.44
2022-09-26T00:39:08.484Z,99796.78
2022-09-26T00:41:36.833Z,99793.44
2022-09-26T00:44:24.375Z,99802.44
2022-09-26T00:46:52.523Z,99791.09
2022-09-26T00:49:34.652Z,99784.22
2022-09-26T00:52:26.449Z,99802.44
2022-09-26T00:54:56.983Z,99794.03
2022-09-26T00:57:37.873Z,99795.16
2022-09-26T01:00:09.422Z,99792.38
2022-09-26T01:02:37.713Z,99796.03
2022-09-26T01:05:06.916Z,99784.81
2022-09-26T01:07:35.425Z,99792.16
2022-09-26T01:10:05.127Z,99784.44
2022-09-26T01:12:33.199Z,99781.91
2022-09-26T01:15:01.503Z,99784.75
2022-09-26T01:17:29.077Z,99795.47
2022-09-26T01:20:18.074Z,99798.13
2022-09-26T01:23:19.420Z,99803.16
2022-09-26T01:25:59.249Z,99810.03
2022-09-26T01:28:49.015Z,99810.69
2022-09-26T01:31:32.510Z,99807.88
2022-09-26T01:34:24.249Z,99813.59
2022-09-26T01:37:23.994Z,99814.13
2022-09-26T01:40:22.240Z,99814.97
2022-09-26T01:42:54.993Z,99798.59
2022-09-26T01:45:29.096Z,99789.41
2022-09-26T01:48:31.005Z,99797.75
2022-09-26T01:51:33.299Z,99800.41
2022-09-26T01:54:12.746Z,99806.34
2022-09-26T01:56:42.048Z,99798.97
2022-09-26T01:59:32.064Z,99778.53
2022-09-26T02:02:10.946Z,99760.81
2022-09-26T02:04:44.646Z,99750.25
2022-09-26T02:07:16.936Z,99749.50
2022-09-26T02:09:56.932Z,99769.16
2022-09-26T02:12:32.922Z,99777.81
2022-09-26T02:15:06.495Z,99779.25
2022-09-26T02:17:40.245Z,99783.25
2022-09-26T02:20:35.172Z,99791.25
2022-09-26T02:23:04.363Z,99795.59
2022-09-26T02:25:33.165Z,99808.47
2022-09-26T02:28:01.202Z,99812.53
2022-09-26T02:30:29.398Z,99817.38
2022-09-26T02:32:57.096Z,99818.75
2022-09-26T02:35:44.484Z,99806.91
2022-09-26T02:38:13.532Z,99792.72
2022-09-26T02:41:00.354Z,99786.03
2022-09-26T02:44:06.263Z,99791.81
2022-09-26T02:47:02.541Z,99783.97
2022-09-26T02:49:49.873Z,99784.44
2022-09-26T02:52:55.875Z,99780.41
2022-09-26T02:56:03.491Z,99771.03
2022-09-26T02:58:39.159Z,99763.47
2022-09-26T03:01:19.778Z,99758.91
2022-09-26T03:04:18.691Z,99757.88
2022-09-26T03:06:51.492Z,99771.00
2022-09-26T03:09:23.072Z,99778.63
2022-09-26T03:11:54.266Z,99783.44
2022-09-26T03:14:21.927Z,99792.88
2022-09-26T03:16:52.224Z,99805.88
2022-09-26T03:19:30.277Z,99803.34
2022-09-26T03:22:00.080Z,99806.47
2022-09-26T03:24:28.412Z,99819.28
2022-09-26T03:27:00.683Z,99847.09
2022-09-26T03:29:28.430Z,99847.41
2022-09-26T03:31:56.320Z,99842.22
2022-09-26T03:34:23.983Z,99852.34
2022-09-26T03:36:54.402Z,99851.97
2022-09-26T03:39:23.128Z,99851.41
2022-09-26T03:41:59.326Z,99853.56
2022-09-26T03:44:29.032Z,99857.47
2022-09-26T03:47:18.217Z,99859.75
2022-09-26T03:49:49.779Z,99850.66
2022-09-26T03:52:17.242Z,99863.44
2022-09-26T03:54:45.759Z,99865.41
2022-09-26T03:57:17.087Z,99861.50
2022-09-26T03:59:52.353Z,99861.13
2022-09-26T04:02:21.114Z,99846.53
2022-09-26T04:04:55.774Z,99847.00
2022-09-26T04:07:23.316Z,99852.63
2022-09-26T04:09:50.900Z,99854.75
2022-09-26T04:12:20.290Z,99859.38
2022-09-26T04:14:47.873Z,99864.81
2022-09-26T04:17:15.381Z,99864.81
2022-09-26T04:19:44.918Z,99871.84
2022-09-26T04:22:12.769Z,99867.50
2022-09-26T04:24:41.736Z,99872.53
2022-09-26T04:27:09.361Z,99872.53
2022-09-26T04:29:38.130Z,99882.22
2022-09-26T04:32:12.526Z,99871.56
2022-09-26T04:34:52.630Z,99867.19
2022-09-26T04:37:21.126Z,99866.38
2022-09-26T04:39:48.725Z,99872.69
2022-09-26T04:42:16.864Z,99881.81
2022-09-26T04:44:44.489Z,99893.59
2022-09-26T04:47:12.044Z,99890.25
2022-09-26T04:49:58.094Z,99888.41
2022-09-26T04:52:26.661Z,99907.06
2022-09-26T04:54:54.426Z,99914.91
2022-09-26T04:57:22.020Z,99928.94
2022-09-26T04:59:49.517Z,99930.50
2022-09-26T05:02:18.127Z,99931.16
2022-09-26T05:04:48.241Z,99938.19
2022-09-26T05:07:16.407Z,99942.69
2022-09-26T05:09:44.877Z,99949.81
2022-09-26T05:12:15.512Z,99949.97
2022-09-26T05:14:46.127Z,99944.94
2022-09-26T05:17:15.549Z,99947.88
2022-09-26T05:19:45.908Z,99949.00
2022-09-26T05:22:29.893Z,99951.13
2022-09-26T05:25:15.989Z,99962.06
2022-09-26T05:27:43.871Z,99960.66
2022-09-26T05:30:14.659Z,99957.44
2022-09-26T05:32:46.130Z,99975.53
2022-09-26T05:35:14.174Z,99976.50
2022-09-26T05:37:42.816Z,99980.03
2022-09-26T05:40:30.329Z,99984.22
2022-09-26T05:43:02.656Z,99980.44
2022-09-26T05:45:31.615Z,99986.47
2022-09-26T05:48:01.997Z,99998.97
2022-09-26T05:50:29.785Z,100002.75
2022-09-26T05:52:58.789Z,100005.69
2022-09-26T05:55:27.584Z,100009.47
2022-09-26T05:57:58.730Z,100002.47
2022-09-26T06:00:35.774Z,100005.25
2022-09-26T06:03:03.834Z,100014.22
2022-09-26T06:05:52.053Z,100021.38
2022-09-26T06:08:25.605Z,100015.22
2022-09-26T06:11:16.405Z,100022.94
2022-09-26T06:13:48.437Z,100030.38
2022-09-26T06:16:19.165Z,100028.00
2022-09-26T06:18:50.684Z,100044.09
2022-09-26T06:21:20.789Z,100045.09
2022-09-26T06:23:52.488Z,100045.91
2022-09-26T06:26:23.694Z,100034.41
2022-09-26T06:29:00.407Z,100037.06
2022-09-26T06:31:30.347Z,100046.16
2022-09-26T06:34:09.940Z,100049.09
2022-09-26T06:36:49.695Z,100054.69
2022-09-26T06:39:17.944Z,100048.94
2022-09-26T06:41:47.727Z,100058.06
2022-09-26T06:44:35.589Z,100065.50
2022-09-26T06:47:15.869Z,100062.22
2022-09-26T06:49:46.970Z,100071.34
2022-09-26T06:52:26.668Z,100070.91
2022-09-26T06:54:57.215Z,100087.63
2022-09-26T06:57:24.795Z,100085.63
2022-09-26T06:59:52.506Z,100082.66
2022-09-26T07:02:51.562Z,100074.38
2022-09-26T07:05:37.882Z,100075.06
2022-09-26T07:08:05.577Z,100079.88
2022-09-26T07:10:35.270Z,100082.28
2022-09-26T07:13:09.524Z,100087.38
2022-09-26T07:15:37.595Z,100085.94
2022-09-26T07:18:20.519Z,100091.72
2022-09-26T07:21:23.479Z,100103.53
2022-09-26T07:24:06.185Z,100106.19
2022-09-26T07:26:33.877Z,100105.53
2022-09-26T07:29:01.880Z,100112.66
2022-09-26T07:31:31.149Z,100107.91
2022-09-26T07:34:08.826Z,100114.47
2022-09-26T07:36:40.863Z,100121.31
2022-09-26T07:39:09.795Z,100113.69
2022-09-26T07:41:37.371Z,100121.06
2022-09-26T07:44:53.297Z,100120.44
2022-09-26T07:47:10.790Z,100125.38
2022-09-26T07:49:57.503Z,100125.38
2022-09-26T07:52:58.326Z,100129.94
2022-09-26T07:55:27.952Z,100128.06
2022-09-26T07:58:01.086Z,100128.97
2022-09-26T08:00:48.565Z,100128.88
2022-09-26T08:03:44.543Z,100131.81
2022-09-26T08:06:35.186Z,100141.97
2022-09-26T08:09:03.175Z,100137.28
2022-09-26T08:11:49.065Z,100145.50
2022-09-26T08:14:55.046Z,100144.69
2022-09-26T08:17:33.631Z,100155.78
2022-09-26T08:20:02.059Z,100157.75
2022-09-26T08:22:30.017Z,100151.16
2022-09-26T08:25:00.257Z,100158.66
2022-09-26T08:27:46.659Z,100153.22
2022-09-26T08:30:15.246Z,100153.03
2022-09-26T08:32:42.957Z,100146.56
2022-09-26T08:35:14.559Z,100151.28
2022-09-26T08:37:44.991Z,100150.59
2022-09-26T08:40:54.988Z,100148.75
2022-09-26T08:43:57.837Z,100141.38
2022-09-26T08:47:11.682Z,100144.25
2022-09-26T08:50:12.196Z,100140.50
2022-09-26T08:53:00.854Z,100149.69
2022-09-26T08:55:35.181Z,100150.44
2022-09-26T08:58:08.961Z,100150.09
2022-09-26T09:00:40.433Z,100161.59
2022-09-26T09:03:31.767Z,100167.34
2022-09-26T09:06:11.613Z,100165.09
2022-09-26T09:08:50.136Z,100153.81
2022-09-26T09:11:54.435Z,100167.25
2022-09-26T09:14:24.867Z,100168.00
2022-09-26T09:17:23.099Z,100161.59
2022-09-26T09:20:27.901Z,100150.47
2022-09-26T09:23:47.548Z,100151.16
2022-09-26T09:29:32.364Z,100151.09
2022-09-26T09:32:25.833Z,100156.09
2022-09-26T09:35:16.611Z,100151.88
2022-09-26T09:38:21.549Z,100159.56
2022-09-26T09:41:14.314Z,100161.41
2022-09-26T09:43:51.997Z,100165.03
2022-09-26T09:46:29.539Z,100159.69
2022-09-26T09:49:09.441Z,100162.94
2022-09-26T09:52:26.506Z,100157.63
2022-09-26T09:55:30.030Z,100165.50
2022-09-26T09:58:51.938Z,100176.78
2022-09-26T10:01:39.245Z,100168.59
2022-09-26T10:04:44.585Z,100159.03
2022-09-26T10:07:13.493Z,100162.41
2022-09-26T10:09:55.909Z,100158.56
2022-09-26T10:12:55.103Z,100151.56
2022-09-26T10:16:32.269Z,100167.63
2022-09-26T10:19:18.446Z,100183.22
2022-09-26T10:21:57.157Z,100176.72
2022-09-26T10:24:38.905Z,100185.47
2022-09-26T10:27:41.216Z,100177.34
2022-09-26T10:30:26.210Z,100180.28
2022-09-26T10:33:03.584Z,100178.66
2022-09-26T10:36:13.087Z,100182.28
2022-09-26T10:39:22.725Z,100170.56
2022-09-26T10:42:04.057Z,100176.91
2022-09-26T10:44:36.675Z,100180.31
2022-09-26T10:47:15.688Z,100175.47
2022-09-26T10:50:18.506Z,100164.19
2022-09-26T10:53:17.576Z,100173.72
2022-09-26T10:55:58.814Z,100168.91
2022-09-26T10:58:31.027Z,100155.91
2022-09-26T11:01:07.417Z,100164.47
2022-09-26T11:03:54.656Z,100162.66
2022-09-26T11:06:35.513Z,100162.75
2022-09-26T11:09:28.942Z,100165.59
2022-09-26T11:12:36.522Z,100164.91
2022-09-26T11:15:14.976Z,100162.34
2022-09-26T11:17:51.013Z,100152.94
2022-09-26T11:20:43.208Z,100164.94
2022-09-26T11:23:34.959Z,100163.56
2022-09-26T11:26:42.575Z,100162.09
2022-09-26T11:29:39.141Z,100151.00
2022-09-26T11:32:18.549Z,100150.63
2022-09-26T11:35:32.432Z,100154.69
2022-09-26T11:38:39.067Z,100147.81
2022-09-26T11:41:18.690Z,100144.25
2022-09-26T11:43:51.069Z,100143.75
2022-09-26T11:47:13.179Z,100158.75
2022-09-26T11:50:08.205Z,100158.59
2022-09-26T11:53:17.847Z,100158.13
2022-09-26T11:56:36.095Z,100151.97
2022-09-26T12:00:06.860Z,100150.44
2022-09-26T12:03:05.491Z,100156.59
2022-09-26T12:06:04.572Z,100160.09
2022-09-26T12:08:58.751Z,100159.66
2022-09-26T12:11:57.538Z,100153.69
2022-09-26T12:14:29.412Z,100153.94
2022-09-26T12:17:20.518Z,100155.19
2022-09-26T12:20:33.708Z,100140.56
2022-09-26T12:23:10.110Z,100159.16
2022-09-26T12:26:15.192Z,100154.25
2022-09-26T12:29:24.422Z,100153.00
2022-09-26T12:32:06.779Z,100150.25
2022-09-26T12:35:16.563Z,100150.72
2022-09-26T12:38:08.915Z,100140.91
2022-09-26T12:40:58.073Z,100138.97
2022-09-26T12:43:51.158Z,100149.25
2022-09-26T12:46:54.150Z,100149.28
2022-09-26T12:49:44.062Z,100119.97
2022-09-26T12:52:26.583Z,100130.03
2022-09-26T12:55:17.722Z,100128.56
2022-09-26T12:58:22.061Z,100126.50
2022-09-26T13:01:06.528Z,100125.88
2022-09-26T13:03:43.426Z,100129.38
2022-09-26T13:06:22.068Z,100127.38
2022-09-26T13:09:05.966Z,100128.81
2022-09-26T13:11:58.365Z,100133.22
2022-09-26T13:14:36.793Z,100137.31
2022-09-26T13:17:28.539Z,100125.22
2022-09-26T13:20:22.489Z,100131.88
2022-09-26T13:23:03.340Z,100128.50
2022-09-26T13:25:52.625Z,100114.88
2022-09-26T13:28:44.574Z,100114.69
2022-09-26T13:31:41.557Z,100119.44
2022-09-26T13:34:26.786Z,100115.38
2022-09-26T13:36:59.331Z,100122.13
2022-09-26T13:39:29.999Z,100135.06
2022-09-26T13:42:19.235Z,100119.28
2022-09-26T13:45:21.700Z,100111.88
2022-09-26T13:48:08.703Z,100117.16
2022-09-26T13:50:49.422Z,100121.50
2022-09-26T13:53:30.518Z,100111.22
2022-09-26T13:56:31.309Z,100114.91
2022-09-26T13:59:29.492Z,100109.41
2022-09-26T14:02:18.545Z,100116.44
2022-09-26T14:04:48.296Z,100118.66
2022-09-26T14:07:36.008Z,100114.19
2022-09-26T14:10:08.907Z,100106.31
2022-09-26T14:13:06.824Z,100125.06
2022-09-26T14:15:50.108Z,100119.13
2022-09-26T14:19:04.446Z,100124.56
2022-09-26T14:21:47.473Z,100122.53
2022-09-26T14:24:21.032Z,100117.56
2022-09-26T14:27:09.851Z,100121.44
2022-09-26T14:29:47.865Z,100128.19
2022-09-26T14:32:23.381Z,100129.34
2022-09-26T14:34:55.507Z,100125.31
2022-09-26T14:37:26.694Z,100132.03
2022-09-26T14:40:16.964Z,100124.81
2022-09-26T14:42:44.836Z,100123.59
2022-09-26T14:45:28.485Z,100128.03
2022-09-26T14:48:09.616Z,100131.09
2022-09-26T14:50:50.627Z,100130.31
2022-09-26T14:54:03.754Z,100135.81
2022-09-26T14:56:42.064Z,100139.34
2022-09-26T14:59:16.393Z,100130.28
2022-09-26T15:01:45.510Z,100131.38
2022-09-26T15:04:25.619Z,100137.63
2022-09-26T15:07:16.495Z,100133.44
2022-09-26T15:10:19.145Z,100133.50
2022-09-26T15:13:30.188Z,100135.72
2022-09-26T15:16:26.340Z,100131.44
2022-09-26T15:19:11.701Z,100124.53
2022-09-26T15:21:42.504Z,100136.38
2022-09-26T15:24:35.862Z,100132.78
2022-09-26T15:27:19.953Z,100121.31
2022-09-26T15:29:58.716Z,100114.41
2022-09-26T15:32:29.853Z,100107.38
2022-09-26T15:35:01.581Z,100103.84
2022-09-26T15:40:33.634Z,100099.03
2022-09-26T15:43:21.001Z,100101.56
2022-09-26T15:45:58.681Z,100095.88
2022-09-26T15:48:32.759Z,100090.84
2022-09-26T15:51:29.745Z,100099.81
2022-09-26T15:54:22.935Z,100097.53
2022-09-26T15:57:01.129Z,100099.22
2022-09-26T15:59:41.492Z,100105.81
2022-09-26T16:02:39.316Z,100107.97
2022-09-26T16:05:18.046Z,100116.22
2022-09-26T16:07:53.597Z,100119.75
2022-09-26T16:10:40.326Z,100117.25
2022-09-26T16:13:30.126Z,100125.63
2022-09-26T16:16:17.474Z,100116.38
2022-09-26T16:18:58.323Z,100117.88
2022-09-26T16:21:40.424Z,100114.88
2022-09-26T16:24:37.176Z,100120.28
2022-09-26T16:27:29.331Z,100112.41
2022-09-26T16:30:06.417Z,100099.19
2022-09-26T16:32:42.523Z,100102.22
2022-09-26T16:35:34.537Z,100098.91
2022-09-26T16:38:25.977Z,100087.66
2022-09-26T16:40:56.672Z,100087.81
2022-09-26T16:43:31.664Z,100103.44
2022-09-26T16:46:13.603Z,100102.75
2022-09-26T16:48:42.490Z,100105.44
2022-09-26T16:51:25.351Z,100111.16
2022-09-26T16:54:22.414Z,100127.78
2022-09-26T16:56:51.691Z,100134.34
2022-09-26T16:59:24.040Z,100139.50
2022-09-26T17:01:54.648Z,100140.38
2022-09-26T17:04:31.724Z,100139.03
2022-09-26T17:07:00.872Z,100145.22
2022-09-26T17:09:30.719Z,100148.56
2022-09-26T17:12:08.478Z,100149.56
2022-09-26T17:14:40.637Z,100143.53
2022-09-26T17:17:16.285Z,100137.50
2022-09-26T17:19:47.595Z,100139.84
2022-09-26T17:22:17.673Z,100136.97
2022-09-26T17:24:45.673Z,100148.03
2022-09-26T17:27:16.600Z,100143.84
2022-09-26T17:29:48.601Z,100140.78
2022-09-26T17:32:31.159Z,100144.13
2022-09-26T17:35:02.208Z,100147.47
2022-09-26T17:37:29.759Z,100143.63
2022-09-26T17:39:57.785Z,100143.41
2022-09-26T17:42:25.950Z,100145.75
2022-09-26T17:44:54.047Z,100149.06
2022-09-26T17:47:23.532Z,100159.88
2022-09-26T17:49:54.818Z,100159.84
2022-09-26T17:52:29.309Z,100160.31
2022-09-26T17:55:05.970Z,100162.97
2022-09-26T17:57:38.305Z,100163.75
2022-09-26T18:00:11.323Z,100164.53
2022-09-26T18:02:49.251Z,100155.59
2022-09-26T18:05:30.009Z,100158.94
2022-09-26T18:08:04.401Z,100159.41
2022-09-26T18:10:34.804Z,100166.22
2022-09-26T18:13:12.946Z,100161.47
2022-09-26T18:15:41.656Z,100167.47
2022-09-26T18:18:14.585Z,100162.28
2022-09-26T18:20:43.095Z,100158.22
2022-09-26T18:23:16.434Z,100152.66
2022-09-26T18:25:47.565Z,100166.34
2022-09-26T18:28:20.538Z,100169.16
2022-09-26T18:30:56.850Z,100166.78
2022-09-26T18:33:27.942Z,100169.81
2022-09-26T18:35:55.627Z,100177.97
2022-09-26T18:38:23.114Z,100191.53
2022-09-26T18:40:55.922Z,100186.31
2022-09-26T18:43:28.079Z,100188.63
2022-09-26T18:45:57.637Z,100189.75
2022-09-26T18:48:30.022Z,100188.94
2022-09-26T18:50:57.775Z,100188.06
2022-09-26T18:53:29.523Z,100190.06
2022-09-26T18:56:15.847Z,100186.84
2022-09-26T18:58:44.061Z,100200.00
2022-09-26T19:01:16.871Z,100194.72
2022-09-26T19:03:51.074Z,100193.75
2022-09-26T19:06:23.285Z,100190.13
2022-09-26T19:08:57.565Z,100189.22
2022-09-26T19:11:29.302Z,100187.97
2022-09-26T19:13:58.656Z,100184.91
2022-09-26T19:16:26.477Z,100193.38
2022-09-26T19:18:54.059Z,100203.53
2022-09-26T19:21:36.429Z,100208.47
2022-09-26T19:24:20.339Z,100202.56
2022-09-26T19:26:57.527Z,100207.66
2022-09-26T19:29:37.318Z,100211.63
2022-09-26T19:32:06.364Z,100210.25
2022-09-26T19:34:34.089Z,100210.66
2022-09-26T19:37:03.223Z,100205.63
2022-09-26T19:39:31.850Z,100203.41
2022-09-26T19:41:59.375Z,100201.84
2022-09-26T19:44:26.930Z,100210.44
2022-09-26T19:46:54.723Z,100208.22
2022-09-26T19:49:23.715Z,100210.34
2022-09-26T19:51:51.289Z,100201.91
2022-09-26T19:54:19.652Z,100211.19
2022-09-26T19:56:47.854Z,100212.31
2022-09-26T19:59:17.298Z,100209.94
2022-09-26T20:01:48.337Z,100211.06
2022-09-26T20:04:19.244Z,100218.50
2022-09-26T20:06:47.434Z,100211.78
2022-09-26T20:09:19.810Z,100219.91
2022-09-26T20:11:47.360Z,100224.69
2022-09-26T20:14:23.948Z,100214.19
2022-09-26T20:16:56.215Z,100218.13
2022-09-26T20:19:34.498Z,100209.41
2022-09-26T20:22:04.860Z,100201.84
2022-09-26T20:24:33.650Z,100211.97
2022-09-26T20:27:03.488Z,100206.03
2022-09-26T20:29:51.454Z,100207.31
2022-09-26T20:32:19.356Z,100211.97
2022-09-26T20:34:47.008Z,100202.53
2022-09-26T20:37:14.862Z,100213.50
2022-09-26T20:39:42.814Z,100212.06
2022-09-26T20:42:17.608Z,100213.44
2022-09-26T20:44:48.670Z,100218.50
2022-09-26T20:47:19.839Z,100210.94
2022-09-26T20:49:55.244Z,100206.00
2022-09-26T20:52:26.099Z,100210.66
2022-09-26T20:54:55.339Z,100207.28
2022-09-26T20:57:24.332Z,100219.75
2022-09-26T20:59:52.226Z,100214.69
2022-09-26T21:02:35.913Z,100209.66
2022-09-26T21:05:10.924Z,100207.13
2022-09-26T21:07:38.536Z,100209.25
2022-09-26T21:10:21.865Z,100205.28
2022-09-26T21:12:50.159Z,100201.34
2022-09-26T21:15:18.411Z,100198.13
2022-09-26T21:17:47.887Z,100199.22
2022-09-26T21:20:20.764Z,100195.72
2022-09-26T21:22:58.208Z,100189.56
2022-09-26T21:25:30.140Z,100185.47
2022-09-26T21:28:01.690Z,100173.38
2022-09-26T21:30:30.754Z,100181.53
2022-09-26T21:32:59.920Z,100176.31
2022-09-26T21:35:31.486Z,100182.66
2022-09-26T21:38:01.152Z,100175.75
2022-09-26T21:40:32.496Z,100174.09
2022-09-26T21:43:07.785Z,100179.41
2022-09-26T21:45:35.593Z,100185.31
2022-09-26T21:48:03.280Z,100185.31
2022-09-26T21:50:31.169Z,100188.97
2022-09-26T21:53:11.297Z,100186.41
2022-09-26T21:55:43.226Z,100182.34
2022-09-26T21:58:18.855Z,100177.19
2022-09-26T22:00:46.471Z,100179.13
2022-09-26T22:03:14.263Z,100171.13
2022-09-26T22:05:42.574Z,100170.97
2022-09-26T22:08:10.181Z,100177.75
2022-09-26T22:10:37.724Z,100181.25
2022-09-26T22:13:05.573Z,100168.19
2022-09-26T22:15:33.102Z,100172.53
2022-09-26T22:18:01.122Z,100171.56
2022-09-26T22:20:28.658Z,100172.69
2022-09-26T22:22:56.212Z,100170.84
2022-09-26T22:25:23.718Z,100165.94
2022-09-26T22:27:51.243Z,100157.09
2022-09-26T22:30:18.787Z,100160.66
2022-09-26T22:32:46.332Z,100157.13
2022-09-26T22:35:14.385Z,100159.69
2022-09-26T22:37:41.828Z,100159.81
2022-09-26T22:40:09.528Z,100151.16
2022-09-26T22:42:37.217Z,100142.00
2022-09-26T22:45:05.109Z,100139.78
2022-09-26T22:47:32.596Z,100141.31
2022-09-26T22:50:00.313Z,100144.66
2022-09-26T22:52:27.795Z,100137.25
2022-09-26T22:54:55.377Z,100135.25
2022-09-26T22:57:23.317Z,100122.34
2022-09-26T22:59:50.846Z,100117.28
2022-09-26T23:02:18.377Z,100102.56
2022-09-26T23:04:48.799Z,100095.97
2022-09-26T23:07:19.880Z,100092.19
2022-09-26T23:09:47.448Z,100094.56
2022-09-26T23:12:15.256Z,100089.88
2022-09-26T23:14:42.925Z,100080.50
2022-09-26T23:17:10.855Z,100083.44
2022-09-26T23:19:38.498Z,100086.81
2022-09-26T23:22:06.079Z,100077.72
2022-09-26T23:24:33.627Z,100072.81
2022-09-26T23:27:01.188Z,100071.41
2022-09-26T23:29:28.825Z,100073.94
2022-09-26T23:31:56.409Z,100073.09
2022-09-26T23:34:23.967Z,100072.09
2022-09-26T23:36:51.472Z,100073.38
2022-09-26T23:39:19.111Z,100071.97
2022-09-26T23:41:46.618Z,100071.81
2022-09-26T23:44:14.305Z,100064.25
2022-09-26T23:46:42.087Z,100063.44
